Terminal Aerodrome Forecast
Issued by NWS Portland, OR

Home | Current Version | Previous Version | Text Only | Print | Product List | Glossary On
Versions: 1 2 3 4 5 6 7 8 9 10 11 12 13 14 15 16 17
000
FTUS46 KPQR 192320
TAFSLE
TAF
KSLE 192320Z 2000/2024 35007KT P6SM BKN050
     FM200300 03004KT P6SM SCT050
     FM201000 16004KT P6SM SCT050 OVC080
     FM201800 17008KT P6SM -RA SCT030 OVC050
     FM202200 18010KT 6SM -RA SCT030 OVC050=

USA.gov is the U.S. government's official web portal to all federal, state and local government web resources and services.